sensor_id;sensor_type;location;lat;lon;timestamp;P1;durP1;ratioP1;P2;durP2;ratioP2
19687;SDS011;9993;52.008;4.732;2022-09-09T00:00:17;5.90;;;4.47;;
19687;SDS011;9993;52.008;4.732;2022-09-09T00:02:45;9.23;;;5.13;;
19687;SDS011;9993;52.008;4.732;2022-09-09T00:05:18;6.53;;;5.45;;
19687;SDS011;9993;52.008;4.732;2022-09-09T00:07:52;7.45;;;5.43;;
19687;SDS011;9993;52.008;4.732;2022-09-09T00:12:51;7.68;;;5.90;;
19687;SDS011;9993;52.008;4.732;2022-09-09T00:15:24;9.13;;;5.72;;
19687;SDS011;9993;52.008;4.732;2022-09-09T00:23:11;5.75;;;5.15;;
19687;SDS011;9993;52.008;4.732;2022-09-09T00:28:02;9.32;;;6.72;;
19687;SDS011;9993;52.008;4.732;2022-09-09T00:30:29;9.05;;;6.10;;
19687;SDS011;9993;52.008;4.732;2022-09-09T00:33:00;6.93;;;6.32;;
19687;SDS011;9993;52.008;4.732;2022-09-09T00:37:52;7.68;;;6.78;;
19687;SDS011;9993;52.008;4.732;2022-09-09T00:40:22;6.88;;;5.97;;
19687;SDS011;9993;52.008;4.732;2022-09-09T00:42:47;9.68;;;6.65;;
19687;SDS011;9993;52.008;4.732;2022-09-09T00:45:35;8.73;;;6.65;;
19687;SDS011;9993;52.008;4.732;2022-09-09T00:48:04;8.00;;;6.28;;
19687;SDS011;9993;52.008;4.732;2022-09-09T00:58:14;8.98;;;6.05;;
19687;SDS011;9993;52.008;4.732;2022-09-09T01:00:44;10.20;;;7.10;;
19687;SDS011;9993;52.008;4.732;2022-09-09T01:03:20;9.77;;;7.93;;
19687;SDS011;9993;52.008;4.732;2022-09-09T01:08:51;11.60;;;7.15;;
19687;SDS011;9993;52.008;4.732;2022-09-09T01:11:21;14.93;;;7.55;;
19687;SDS011;9993;52.008;4.732;2022-09-09T01:13:47;9.77;;;7.90;;
19687;SDS011;9993;52.008;4.732;2022-09-09T01:16:15;9.93;;;7.50;;
19687;SDS011;9993;52.008;4.732;2022-09-09T01:18:46;11.30;;;8.10;;
19687;SDS011;9993;52.008;4.732;2022-09-09T01:26:28;11.40;;;7.85;;
19687;SDS011;9993;52.008;4.732;2022-09-09T01:28:55;9.15;;;7.15;;
19687;SDS011;9993;52.008;4.732;2022-09-09T01:31:40;10.00;;;7.63;;
19687;SDS011;9993;52.008;4.732;2022-09-09T01:37:31;11.13;;;8.25;;
19687;SDS011;9993;52.008;4.732;2022-09-09T01:39:56;12.77;;;8.80;;
19687;SDS011;9993;52.008;4.732;2022-09-09T01:42:22;11.98;;;8.95;;
19687;SDS011;9993;52.008;4.732;2022-09-09T01:44:47;15.35;;;8.55;;
19687;SDS011;9993;52.008;4.732;2022-09-09T01:47:12;12.65;;;8.20;;
19687;SDS011;9993;52.008;4.732;2022-09-09T01:49:37;13.75;;;8.55;;
19687;SDS011;9993;52.008;4.732;2022-09-09T01:52:02;12.48;;;8.88;;
19687;SDS011;9993;52.008;4.732;2022-09-09T01:54:29;10.88;;;8.25;;
19687;SDS011;9993;52.008;4.732;2022-09-09T01:57:02;13.23;;;8.30;;
19687;SDS011;9993;52.008;4.732;2022-09-09T02:02:10;10.02;;;7.43;;
19687;SDS011;9993;52.008;4.732;2022-09-09T02:04:40;9.98;;;7.35;;
19687;SDS011;9993;52.008;4.732;2022-09-09T02:07:28;11.50;;;8.18;;
19687;SDS011;9993;52.008;4.732;2022-09-09T02:09:57;10.52;;;7.95;;
19687;SDS011;9993;52.008;4.732;2022-09-09T02:12:23;10.07;;;7.70;;
19687;SDS011;9993;52.008;4.732;2022-09-09T02:14:52;10.35;;;8.00;;
19687;SDS011;9993;52.008;4.732;2022-09-09T02:17:22;11.50;;;7.95;;
19687;SDS011;9993;52.008;4.732;2022-09-09T02:20:04;13.82;;;8.40;;
19687;SDS011;9993;52.008;4.732;2022-09-09T02:22:30;10.18;;;7.47;;
19687;SDS011;9993;52.008;4.732;2022-09-09T02:24:57;13.18;;;8.57;;
19687;SDS011;9993;52.008;4.732;2022-09-09T02:27:24;13.50;;;8.38;;
19687;SDS011;9993;52.008;4.732;2022-09-09T02:29:49;12.00;;;8.13;;
19687;SDS011;9993;52.008;4.732;2022-09-09T02:32:17;14.20;;;8.60;;
19687;SDS011;9993;52.008;4.732;2022-09-09T02:34:47;15.38;;;9.30;;
19687;SDS011;9993;52.008;4.732;2022-09-09T02:37:14;10.63;;;7.57;;
19687;SDS011;9993;52.008;4.732;2022-09-09T02:39:42;13.32;;;8.98;;
19687;SDS011;9993;52.008;4.732;2022-09-09T02:42:07;15.30;;;8.40;;
19687;SDS011;9993;52.008;4.732;2022-09-09T02:44:33;11.18;;;7.82;;
19687;SDS011;9993;52.008;4.732;2022-09-09T02:52:08;15.07;;;8.45;;
19687;SDS011;9993;52.008;4.732;2022-09-09T02:54:38;12.95;;;8.57;;
19687;SDS011;9993;52.008;4.732;2022-09-09T02:57:11;14.32;;;8.77;;
19687;SDS011;9993;52.008;4.732;2022-09-09T02:59:37;17.10;;;10.20;;
19687;SDS011;9993;52.008;4.732;2022-09-09T03:02:02;15.35;;;10.07;;
19687;SDS011;9993;52.008;4.732;2022-09-09T03:04:28;15.80;;;9.52;;
19687;SDS011;9993;52.008;4.732;2022-09-09T03:06:53;16.52;;;10.05;;
19687;SDS011;9993;52.008;4.732;2022-09-09T03:09:19;14.30;;;9.63;;
19687;SDS011;9993;52.008;4.732;2022-09-09T03:11:44;17.27;;;11.27;;
19687;SDS011;9993;52.008;4.732;2022-09-09T03:14:09;16.10;;;10.32;;
19687;SDS011;9993;52.008;4.732;2022-09-09T03:16:36;15.32;;;10.82;;
19687;SDS011;9993;52.008;4.732;2022-09-09T03:19:01;17.88;;;9.88;;
19687;SDS011;9993;52.008;4.732;2022-09-09T03:21:26;16.60;;;10.30;;
19687;SDS011;9993;52.008;4.732;2022-09-09T03:23:51;14.52;;;9.38;;
19687;SDS011;9993;52.008;4.732;2022-09-09T03:26:17;15.07;;;9.57;;
19687;SDS011;9993;52.008;4.732;2022-09-09T03:28:42;13.93;;;9.27;;
19687;SDS011;9993;52.008;4.732;2022-09-09T03:31:07;13.48;;;9.30;;
19687;SDS011;9993;52.008;4.732;2022-09-09T03:33:35;14.77;;;9.70;;
19687;SDS011;9993;52.008;4.732;2022-09-09T03:36:01;15.30;;;8.63;;
19687;SDS011;9993;52.008;4.732;2022-09-09T03:38:26;15.13;;;8.73;;
19687;SDS011;9993;52.008;4.732;2022-09-09T03:40:53;13.05;;;8.63;;
19687;SDS011;9993;52.008;4.732;2022-09-09T03:43:23;13.60;;;8.52;;
19687;SDS011;9993;52.008;4.732;2022-09-09T03:45:48;13.38;;;8.88;;
19687;SDS011;9993;52.008;4.732;2022-09-09T03:48:14;15.02;;;8.75;;
19687;SDS011;9993;52.008;4.732;2022-09-09T03:50:43;13.70;;;8.10;;
19687;SDS011;9993;52.008;4.732;2022-09-09T03:53:09;10.07;;;7.47;;
19687;SDS011;9993;52.008;4.732;2022-09-09T03:55:34;12.82;;;7.97;;
19687;SDS011;9993;52.008;4.732;2022-09-09T03:57:59;11.85;;;7.88;;
19687;SDS011;9993;52.008;4.732;2022-09-09T04:00:25;11.98;;;7.32;;
19687;SDS011;9993;52.008;4.732;2022-09-09T04:02:51;12.68;;;7.72;;
19687;SDS011;9993;52.008;4.732;2022-09-09T04:05:19;13.00;;;7.43;;
19687;SDS011;9993;52.008;4.732;2022-09-09T04:07:44;13.98;;;7.68;;
19687;SDS011;9993;52.008;4.732;2022-09-09T04:10:09;9.52;;;6.88;;
19687;SDS011;9993;52.008;4.732;2022-09-09T04:12:34;12.23;;;6.47;;
19687;SDS011;9993;52.008;4.732;2022-09-09T04:14:59;9.93;;;6.30;;
19687;SDS011;9993;52.008;4.732;2022-09-09T04:17:27;12.85;;;6.53;;
19687;SDS011;9993;52.008;4.732;2022-09-09T04:19:52;9.45;;;5.78;;
19687;SDS011;9993;52.008;4.732;2022-09-09T04:22:17;10.50;;;6.80;;
19687;SDS011;9993;52.008;4.732;2022-09-09T04:24:42;10.02;;;6.03;;
19687;SDS011;9993;52.008;4.732;2022-09-09T04:27:07;9.95;;;6.63;;
19687;SDS011;9993;52.008;4.732;2022-09-09T04:29:32;8.45;;;6.32;;
19687;SDS011;9993;52.008;4.732;2022-09-09T04:31:58;11.48;;;6.05;;
19687;SDS011;9993;52.008;4.732;2022-09-09T04:34:23;9.65;;;5.47;;
19687;SDS011;9993;52.008;4.732;2022-09-09T04:36:50;8.50;;;5.50;;
19687;SDS011;9993;52.008;4.732;2022-09-09T04:39:16;10.95;;;5.38;;
19687;SDS011;9993;52.008;4.732;2022-09-09T04:41:41;8.30;;;4.80;;
19687;SDS011;9993;52.008;4.732;2022-09-09T04:44:07;6.90;;;4.93;;
19687;SDS011;9993;52.008;4.732;2022-09-09T04:46:32;9.13;;;4.68;;
19687;SDS011;9993;52.008;4.732;2022-09-09T04:48:59;9.02;;;4.88;;
19687;SDS011;9993;52.008;4.732;2022-09-09T04:51:24;7.95;;;4.25;;
19687;SDS011;9993;52.008;4.732;2022-09-09T04:53:49;8.73;;;5.00;;
19687;SDS011;9993;52.008;4.732;2022-09-09T04:56:16;7.65;;;4.47;;
19687;SDS011;9993;52.008;4.732;2022-09-09T04:58:41;7.35;;;4.75;;
19687;SDS011;9993;52.008;4.732;2022-09-09T05:01:29;5.03;;;4.45;;
19687;SDS011;9993;52.008;4.732;2022-09-09T05:03:53;6.88;;;4.28;;
19687;SDS011;9993;52.008;4.732;2022-09-09T05:06:19;11.00;;;5.03;;
19687;SDS011;9993;52.008;4.732;2022-09-09T05:08:44;10.35;;;4.63;;
19687;SDS011;9993;52.008;4.732;2022-09-09T05:11:17;8.57;;;4.70;;
19687;SDS011;9993;52.008;4.732;2022-09-09T05:13:42;8.52;;;4.45;;
19687;SDS011;9993;52.008;4.732;2022-09-09T05:16:08;11.13;;;4.20;;
19687;SDS011;9993;52.008;4.732;2022-09-09T05:18:36;7.95;;;4.68;;
19687;SDS011;9993;52.008;4.732;2022-09-09T05:21:01;8.20;;;5.30;;
19687;SDS011;9993;52.008;4.732;2022-09-09T05:23:27;9.23;;;4.47;;
19687;SDS011;9993;52.008;4.732;2022-09-09T05:25:56;9.40;;;4.45;;
19687;SDS011;9993;52.008;4.732;2022-09-09T05:28:21;10.15;;;4.90;;
19687;SDS011;9993;52.008;4.732;2022-09-09T05:30:54;6.80;;;4.28;;
19687;SDS011;9993;52.008;4.732;2022-09-09T05:33:19;8.10;;;4.57;;
19687;SDS011;9993;52.008;4.732;2022-09-09T05:35:46;6.35;;;3.85;;
19687;SDS011;9993;52.008;4.732;2022-09-09T05:38:11;7.90;;;4.15;;
19687;SDS011;9993;52.008;4.732;2022-09-09T05:40:36;7.40;;;4.57;;
19687;SDS011;9993;52.008;4.732;2022-09-09T05:43:01;10.65;;;4.90;;
19687;SDS011;9993;52.008;4.732;2022-09-09T05:45:26;11.05;;;4.55;;
19687;SDS011;9993;52.008;4.732;2022-09-09T05:47:52;5.85;;;4.20;;
19687;SDS011;9993;52.008;4.732;2022-09-09T05:50:19;8.27;;;4.38;;
19687;SDS011;9993;52.008;4.732;2022-09-09T05:52:45;12.40;;;4.72;;
19687;SDS011;9993;52.008;4.732;2022-09-09T05:55:10;10.45;;;4.47;;
19687;SDS011;9993;52.008;4.732;2022-09-09T05:57:35;10.73;;;4.60;;
19687;SDS011;9993;52.008;4.732;2022-09-09T06:00:00;10.05;;;4.72;;
19687;SDS011;9993;52.008;4.732;2022-09-09T06:02:26;7.78;;;3.80;;
19687;SDS011;9993;52.008;4.732;2022-09-09T06:04:51;6.75;;;4.30;;
19687;SDS011;9993;52.008;4.732;2022-09-09T06:07:16;12.95;;;4.53;;
19687;SDS011;9993;52.008;4.732;2022-09-09T06:09:41;8.40;;;4.75;;
19687;SDS011;9993;52.008;4.732;2022-09-09T06:12:07;5.93;;;3.78;;
19687;SDS011;9993;52.008;4.732;2022-09-09T06:14:32;6.95;;;4.10;;
19687;SDS011;9993;52.008;4.732;2022-09-09T06:16:57;10.70;;;4.40;;
19687;SDS011;9993;52.008;4.732;2022-09-09T06:19:22;6.15;;;3.60;;
19687;SDS011;9993;52.008;4.732;2022-09-09T06:21:51;13.75;;;4.57;;
19687;SDS011;9993;52.008;4.732;2022-09-09T06:24:17;11.93;;;4.03;;
19687;SDS011;9993;52.008;4.732;2022-09-09T06:26:44;6.32;;;3.85;;
19687;SDS011;9993;52.008;4.732;2022-09-09T06:29:10;8.30;;;3.58;;
19687;SDS011;9993;52.008;4.732;2022-09-09T06:31:36;7.38;;;3.83;;
19687;SDS011;9993;52.008;4.732;2022-09-09T06:34:03;12.80;;;3.83;;
19687;SDS011;9993;52.008;4.732;2022-09-09T06:36:29;8.10;;;3.40;;
19687;SDS011;9993;52.008;4.732;2022-09-09T06:38:55;11.27;;;4.18;;
19687;SDS011;9993;52.008;4.732;2022-09-09T06:41:21;7.25;;;3.78;;
19687;SDS011;9993;52.008;4.732;2022-09-09T06:43:48;6.38;;;3.50;;
19687;SDS011;9993;52.008;4.732;2022-09-09T06:46:17;6.40;;;4.47;;
19687;SDS011;9993;52.008;4.732;2022-09-09T06:48:43;7.15;;;3.95;;
19687;SDS011;9993;52.008;4.732;2022-09-09T06:51:13;8.68;;;4.20;;
19687;SDS011;9993;52.008;4.732;2022-09-09T06:53:39;6.43;;;3.97;;
19687;SDS011;9993;52.008;4.732;2022-09-09T06:58:44;9.25;;;4.75;;
19687;SDS011;9993;52.008;4.732;2022-09-09T07:01:14;9.40;;;4.38;;
19687;SDS011;9993;52.008;4.732;2022-09-09T07:03:40;9.30;;;3.95;;
19687;SDS011;9993;52.008;4.732;2022-09-09T07:06:05;5.97;;;4.72;;
19687;SDS011;9993;52.008;4.732;2022-09-09T07:08:31;9.68;;;4.97;;
19687;SDS011;9993;52.008;4.732;2022-09-09T07:11:06;4.50;;;3.60;;
19687;SDS011;9993;52.008;4.732;2022-09-09T07:13:32;8.57;;;4.70;;
19687;SDS011;9993;52.008;4.732;2022-09-09T07:16:04;9.05;;;4.43;;
19687;SDS011;9993;52.008;4.732;2022-09-09T07:18:30;7.45;;;4.95;;
19687;SDS011;9993;52.008;4.732;2022-09-09T07:20:55;8.73;;;4.95;;
19687;SDS011;9993;52.008;4.732;2022-09-09T07:23:22;11.30;;;4.85;;
19687;SDS011;9993;52.008;4.732;2022-09-09T07:25:47;7.35;;;5.32;;
19687;SDS011;9993;52.008;4.732;2022-09-09T07:28:12;5.90;;;4.60;;
19687;SDS011;9993;52.008;4.732;2022-09-09T07:30:38;6.85;;;5.22;;
19687;SDS011;9993;52.008;4.732;2022-09-09T07:33:03;8.77;;;5.72;;
19687;SDS011;9993;52.008;4.732;2022-09-09T07:35:28;8.38;;;5.30;;
19687;SDS011;9993;52.008;4.732;2022-09-09T07:37:54;5.95;;;5.35;;
19687;SDS011;9993;52.008;4.732;2022-09-09T07:40:19;9.57;;;5.55;;
19687;SDS011;9993;52.008;4.732;2022-09-09T07:42:46;10.13;;;5.55;;
19687;SDS011;9993;52.008;4.732;2022-09-09T07:45:11;7.95;;;5.38;;
19687;SDS011;9993;52.008;4.732;2022-09-09T07:47:37;5.63;;;4.70;;
19687;SDS011;9993;52.008;4.732;2022-09-09T07:50:02;5.55;;;4.75;;
19687;SDS011;9993;52.008;4.732;2022-09-09T07:52:27;6.05;;;4.78;;
19687;SDS011;9993;52.008;4.732;2022-09-09T07:54:52;10.35;;;4.65;;
19687;SDS011;9993;52.008;4.732;2022-09-09T07:57:18;8.00;;;5.07;;
19687;SDS011;9993;52.008;4.732;2022-09-09T07:59:43;8.10;;;5.13;;
19687;SDS011;9993;52.008;4.732;2022-09-09T08:02:08;8.30;;;4.50;;
19687;SDS011;9993;52.008;4.732;2022-09-09T08:04:34;6.55;;;4.65;;
19687;SDS011;9993;52.008;4.732;2022-09-09T08:07:00;6.55;;;4.93;;
19687;SDS011;9993;52.008;4.732;2022-09-09T08:09:26;9.90;;;4.82;;
19687;SDS011;9993;52.008;4.732;2022-09-09T08:11:53;6.05;;;4.82;;
19687;SDS011;9993;52.008;4.732;2022-09-09T08:14:18;7.70;;;4.93;;
19687;SDS011;9993;52.008;4.732;2022-09-09T08:16:45;8.85;;;5.03;;
19687;SDS011;9993;52.008;4.732;2022-09-09T08:19:11;6.53;;;5.18;;
19687;SDS011;9993;52.008;4.732;2022-09-09T08:21:37;11.93;;;5.05;;
19687;SDS011;9993;52.008;4.732;2022-09-09T08:24:04;9.45;;;4.80;;
19687;SDS011;9993;52.008;4.732;2022-09-09T08:26:36;7.15;;;4.50;;
19687;SDS011;9993;52.008;4.732;2022-09-09T08:29:02;8.88;;;4.72;;
19687;SDS011;9993;52.008;4.732;2022-09-09T08:31:38;7.93;;;4.40;;
19687;SDS011;9993;52.008;4.732;2022-09-09T08:34:04;6.20;;;4.38;;
19687;SDS011;9993;52.008;4.732;2022-09-09T08:36:30;4.85;;;4.20;;
19687;SDS011;9993;52.008;4.732;2022-09-09T08:38:58;9.23;;;4.53;;
19687;SDS011;9993;52.008;4.732;2022-09-09T08:49:06;5.82;;;3.80;;
19687;SDS011;9993;52.008;4.732;2022-09-09T08:51:34;7.50;;;3.90;;
19687;SDS011;9993;52.008;4.732;2022-09-09T08:54:00;7.32;;;3.35;;
19687;SDS011;9993;52.008;4.732;2022-09-09T08:56:27;7.07;;;3.50;;
19687;SDS011;9993;52.008;4.732;2022-09-09T08:58:53;8.18;;;4.00;;
19687;SDS011;9993;52.008;4.732;2022-09-09T09:06:48;6.90;;;3.65;;
19687;SDS011;9993;52.008;4.732;2022-09-09T09:12:00;5.30;;;3.83;;
19687;SDS011;9993;52.008;4.732;2022-09-09T09:14:27;7.68;;;4.22;;
19687;SDS011;9993;52.008;4.732;2022-09-09T09:16:54;10.20;;;4.03;;
19687;SDS011;9993;52.008;4.732;2022-09-09T09:19:21;5.78;;;3.70;;
19687;SDS011;9993;52.008;4.732;2022-09-09T09:21:53;7.47;;;3.88;;
19687;SDS011;9993;52.008;4.732;2022-09-09T09:24:27;6.13;;;4.18;;
19687;SDS011;9993;52.008;4.732;2022-09-09T09:26:53;8.52;;;3.80;;
19687;SDS011;9993;52.008;4.732;2022-09-09T09:29:19;3.88;;;3.33;;
19687;SDS011;9993;52.008;4.732;2022-09-09T09:31:51;5.47;;;3.45;;
19687;SDS011;9993;52.008;4.732;2022-09-09T09:34:17;6.57;;;3.53;;
19687;SDS011;9993;52.008;4.732;2022-09-09T09:36:46;7.03;;;3.55;;
19687;SDS011;9993;52.008;4.732;2022-09-09T09:39:26;6.82;;;3.60;;
19687;SDS011;9993;52.008;4.732;2022-09-09T09:41:52;7.95;;;4.18;;
19687;SDS011;9993;52.008;4.732;2022-09-09T09:44:23;5.20;;;3.80;;
19687;SDS011;9993;52.008;4.732;2022-09-09T09:46:49;12.50;;;4.03;;
19687;SDS011;9993;52.008;4.732;2022-09-09T09:49:14;7.00;;;4.10;;
19687;SDS011;9993;52.008;4.732;2022-09-09T09:51:40;7.63;;;4.13;;
19687;SDS011;9993;52.008;4.732;2022-09-09T09:54:19;13.52;;;4.90;;
19687;SDS011;9993;52.008;4.732;2022-09-09T09:56:47;6.60;;;3.55;;
19687;SDS011;9993;52.008;4.732;2022-09-09T10:02:18;8.90;;;4.10;;
19687;SDS011;9993;52.008;4.732;2022-09-09T10:04:44;6.22;;;3.22;;
19687;SDS011;9993;52.008;4.732;2022-09-09T10:07:19;8.07;;;3.85;;
19687;SDS011;9993;52.008;4.732;2022-09-09T10:09:45;5.22;;;3.25;;
19687;SDS011;9993;52.008;4.732;2022-09-09T10:22:27;5.57;;;3.22;;
19687;SDS011;9993;52.008;4.732;2022-09-09T10:35:35;4.50;;;3.08;;
19687;SDS011;9993;52.008;4.732;2022-09-09T10:38:12;7.00;;;3.35;;
19687;SDS011;9993;52.008;4.732;2022-09-09T10:40:41;6.80;;;3.40;;
19687;SDS011;9993;52.008;4.732;2022-09-09T10:43:14;5.97;;;3.28;;
19687;SDS011;9993;52.008;4.732;2022-09-09T10:48:30;4.13;;;2.40;;
19687;SDS011;9993;52.008;4.732;2022-09-09T10:51:00;6.97;;;3.05;;
19687;SDS011;9993;52.008;4.732;2022-09-09T10:56:11;4.32;;;3.42;;
19687;SDS011;9993;52.008;4.732;2022-09-09T11:01:06;4.40;;;2.63;;
19687;SDS011;9993;52.008;4.732;2022-09-09T11:03:34;4.20;;;2.65;;
19687;SDS011;9993;52.008;4.732;2022-09-09T11:06:02;3.08;;;2.35;;
19687;SDS011;9993;52.008;4.732;2022-09-09T11:08:29;4.18;;;2.50;;
19687;SDS011;9993;52.008;4.732;2022-09-09T11:13:40;3.40;;;2.28;;
19687;SDS011;9993;52.008;4.732;2022-09-09T11:17:08;3.88;;;2.42;;
19687;SDS011;9993;52.008;4.732;2022-09-09T11:19:04;5.00;;;2.88;;
19687;SDS011;9993;52.008;4.732;2022-09-09T11:21:35;2.65;;;2.35;;
19687;SDS011;9993;52.008;4.732;2022-09-09T11:24:03;3.35;;;2.10;;
19687;SDS011;9993;52.008;4.732;2022-09-09T11:26:35;4.07;;;2.72;;
19687;SDS011;9993;52.008;4.732;2022-09-09T11:31:55;2.33;;;2.00;;
19687;SDS011;9993;52.008;4.732;2022-09-09T11:41:52;5.60;;;2.70;;
19687;SDS011;9993;52.008;4.732;2022-09-09T11:44:19;5.18;;;2.95;;
19687;SDS011;9993;52.008;4.732;2022-09-09T11:46:50;6.55;;;3.10;;
19687;SDS011;9993;52.008;4.732;2022-09-09T11:49:26;2.97;;;2.67;;
19687;SDS011;9993;52.008;4.732;2022-09-09T11:51:52;3.40;;;3.00;;
19687;SDS011;9993;52.008;4.732;2022-09-09T11:54:28;3.95;;;3.33;;
19687;SDS011;9993;52.008;4.732;2022-09-09T11:56:54;3.75;;;2.78;;
19687;SDS011;9993;52.008;4.732;2022-09-09T12:07:02;4.72;;;3.92;;
19687;SDS011;9993;52.008;4.732;2022-09-09T12:09:47;6.70;;;4.88;;
19687;SDS011;9993;52.008;4.732;2022-09-09T12:17:41;7.00;;;4.57;;
19687;SDS011;9993;52.008;4.732;2022-09-09T12:20:15;6.13;;;4.55;;
19687;SDS011;9993;52.008;4.732;2022-09-09T12:22:56;4.30;;;3.90;;
19687;SDS011;9993;52.008;4.732;2022-09-09T12:28:04;4.00;;;3.38;;
19687;SDS011;9993;52.008;4.732;2022-09-09T12:30:34;5.93;;;5.07;;
19687;SDS011;9993;52.008;4.732;2022-09-09T12:33:08;7.60;;;4.72;;
19687;SDS011;9993;52.008;4.732;2022-09-09T12:35:35;6.07;;;4.47;;
19687;SDS011;9993;52.008;4.732;2022-09-09T12:38:03;6.45;;;4.88;;
19687;SDS011;9993;52.008;4.732;2022-09-09T12:40:32;7.03;;;4.80;;
19687;SDS011;9993;52.008;4.732;2022-09-09T12:43:00;5.05;;;4.55;;
19687;SDS011;9993;52.008;4.732;2022-09-09T12:45:26;8.70;;;4.15;;
19687;SDS011;9993;52.008;4.732;2022-09-09T12:52:42;6.25;;;4.35;;
19687;SDS011;9993;52.008;4.732;2022-09-09T12:55:14;7.03;;;4.72;;
19687;SDS011;9993;52.008;4.732;2022-09-09T12:57:41;7.53;;;4.22;;
19687;SDS011;9993;52.008;4.732;2022-09-09T13:00:12;4.75;;;3.83;;
19687;SDS011;9993;52.008;4.732;2022-09-09T13:02:45;7.47;;;4.43;;
19687;SDS011;9993;52.008;4.732;2022-09-09T13:05:53;6.00;;;4.00;;
19687;SDS011;9993;52.008;4.732;2022-09-09T13:08:03;5.75;;;4.15;;
19687;SDS011;9993;52.008;4.732;2022-09-09T13:10:29;4.68;;;3.83;;
19687;SDS011;9993;52.008;4.732;2022-09-09T13:12:56;9.98;;;3.88;;
19687;SDS011;9993;52.008;4.732;2022-09-09T13:15:23;7.95;;;4.68;;
19687;SDS011;9993;52.008;4.732;2022-09-09T13:18:02;5.63;;;4.63;;
19687;SDS011;9993;52.008;4.732;2022-09-09T13:20:28;7.10;;;4.07;;
19687;SDS011;9993;52.008;4.732;2022-09-09T13:22:54;5.18;;;4.25;;
19687;SDS011;9993;52.008;4.732;2022-09-09T13:25:26;6.88;;;4.43;;
19687;SDS011;9993;52.008;4.732;2022-09-09T13:27:59;8.15;;;4.35;;
19687;SDS011;9993;52.008;4.732;2022-09-09T13:30:28;8.75;;;4.88;;
19687;SDS011;9993;52.008;4.732;2022-09-09T13:33:01;8.13;;;4.20;;
19687;SDS011;9993;52.008;4.732;2022-09-09T13:35:27;4.93;;;3.70;;
19687;SDS011;9993;52.008;4.732;2022-09-09T13:37:52;5.07;;;4.20;;
19687;SDS011;9993;52.008;4.732;2022-09-09T13:40:19;6.70;;;4.25;;
19687;SDS011;9993;52.008;4.732;2022-09-09T13:42:44;6.30;;;4.57;;
19687;SDS011;9993;52.008;4.732;2022-09-09T13:45:20;5.20;;;4.70;;
19687;SDS011;9993;52.008;4.732;2022-09-09T13:47:45;4.03;;;3.60;;
19687;SDS011;9993;52.008;4.732;2022-09-09T13:50:25;4.00;;;3.53;;
19687;SDS011;9993;52.008;4.732;2022-09-09T13:52:52;4.63;;;3.70;;
19687;SDS011;9993;52.008;4.732;2022-09-09T13:55:18;6.13;;;3.53;;
19687;SDS011;9993;52.008;4.732;2022-09-09T13:57:59;5.20;;;3.50;;
19687;SDS011;9993;52.008;4.732;2022-09-09T14:00:25;4.45;;;3.00;;
19687;SDS011;9993;52.008;4.732;2022-09-09T14:02:51;4.03;;;2.72;;
19687;SDS011;9993;52.008;4.732;2022-09-09T14:05:18;4.78;;;2.60;;
19687;SDS011;9993;52.008;4.732;2022-09-09T14:07:44;3.50;;;2.38;;
19687;SDS011;9993;52.008;4.732;2022-09-09T14:10:10;3.35;;;2.42;;
19687;SDS011;9993;52.008;4.732;2022-09-09T14:12:35;3.63;;;1.80;;
19687;SDS011;9993;52.008;4.732;2022-09-09T14:15:04;3.08;;;2.30;;
19687;SDS011;9993;52.008;4.732;2022-09-09T14:17:29;3.17;;;2.42;;
19687;SDS011;9993;52.008;4.732;2022-09-09T14:19:56;4.63;;;2.33;;
19687;SDS011;9993;52.008;4.732;2022-09-09T14:22:21;7.35;;;3.17;;
19687;SDS011;9993;52.008;4.732;2022-09-09T14:24:46;4.28;;;2.80;;
19687;SDS011;9993;52.008;4.732;2022-09-09T14:27:12;3.33;;;2.60;;
19687;SDS011;9993;52.008;4.732;2022-09-09T14:29:37;4.03;;;2.85;;
19687;SDS011;9993;52.008;4.732;2022-09-09T14:32:02;7.07;;;3.33;;
19687;SDS011;9993;52.008;4.732;2022-09-09T14:34:28;3.00;;;2.80;;
19687;SDS011;9993;52.008;4.732;2022-09-09T14:36:53;6.63;;;3.60;;
19687;SDS011;9993;52.008;4.732;2022-09-09T14:39:18;6.40;;;4.30;;
19687;SDS011;9993;52.008;4.732;2022-09-09T14:41:44;7.43;;;3.50;;
19687;SDS011;9993;52.008;4.732;2022-09-09T14:44:10;6.60;;;4.60;;
19687;SDS011;9993;52.008;4.732;2022-09-09T14:46:35;4.75;;;4.03;;
19687;SDS011;9993;52.008;4.732;2022-09-09T14:49:00;7.10;;;4.38;;
19687;SDS011;9993;52.008;4.732;2022-09-09T14:51:26;8.45;;;4.13;;
19687;SDS011;9993;52.008;4.732;2022-09-09T14:53:53;4.85;;;4.43;;
19687;SDS011;9993;52.008;4.732;2022-09-09T14:56:20;6.80;;;4.18;;
19687;SDS011;9993;52.008;4.732;2022-09-09T14:58:47;4.18;;;3.83;;
19687;SDS011;9993;52.008;4.732;2022-09-09T15:01:14;5.80;;;3.63;;
19687;SDS011;9993;52.008;4.732;2022-09-09T15:03:40;4.88;;;3.55;;
19687;SDS011;9993;52.008;4.732;2022-09-09T15:06:06;4.20;;;3.28;;
19687;SDS011;9993;52.008;4.732;2022-09-09T15:08:33;6.90;;;3.15;;
19687;SDS011;9993;52.008;4.732;2022-09-09T15:11:00;3.83;;;2.80;;
19687;SDS011;9993;52.008;4.732;2022-09-09T15:13:26;3.10;;;2.80;;
19687;SDS011;9993;52.008;4.732;2022-09-09T15:15:51;3.15;;;2.75;;
19687;SDS011;9993;52.008;4.732;2022-09-09T15:18:16;3.20;;;2.90;;
19687;SDS011;9993;52.008;4.732;2022-09-09T15:20:45;3.83;;;2.40;;
19687;SDS011;9993;52.008;4.732;2022-09-09T15:23:11;2.90;;;2.13;;
19687;SDS011;9993;52.008;4.732;2022-09-09T15:25:36;5.38;;;2.38;;
19687;SDS011;9993;52.008;4.732;2022-09-09T15:28:01;4.25;;;2.15;;
19687;SDS011;9993;52.008;4.732;2022-09-09T15:30:27;3.85;;;2.30;;
19687;SDS011;9993;52.008;4.732;2022-09-09T15:32:52;5.65;;;2.25;;
19687;SDS011;9993;52.008;4.732;2022-09-09T15:35:17;6.15;;;1.95;;
19687;SDS011;9993;52.008;4.732;2022-09-09T15:37:43;4.35;;;2.10;;
19687;SDS011;9993;52.008;4.732;2022-09-09T15:40:08;3.95;;;2.25;;
19687;SDS011;9993;52.008;4.732;2022-09-09T15:42:33;2.40;;;2.10;;
19687;SDS011;9993;52.008;4.732;2022-09-09T15:44:58;2.83;;;2.05;;
19687;SDS011;9993;52.008;4.732;2022-09-09T15:47:24;4.90;;;2.13;;
19687;SDS011;9993;52.008;4.732;2022-09-09T15:49:50;2.50;;;2.20;;
19687;SDS011;9993;52.008;4.732;2022-09-09T15:52:15;5.88;;;3.03;;
19687;SDS011;9993;52.008;4.732;2022-09-09T15:54:40;4.13;;;2.75;;
19687;SDS011;9993;52.008;4.732;2022-09-09T15:57:09;6.75;;;3.53;;
19687;SDS011;9993;52.008;4.732;2022-09-09T15:59:36;4.63;;;3.25;;
19687;SDS011;9993;52.008;4.732;2022-09-09T16:02:01;6.40;;;3.30;;
19687;SDS011;9993;52.008;4.732;2022-09-09T16:04:27;6.35;;;3.83;;
19687;SDS011;9993;52.008;4.732;2022-09-09T16:06:54;4.85;;;3.55;;
19687;SDS011;9993;52.008;4.732;2022-09-09T16:09:20;5.07;;;3.45;;
19687;SDS011;9993;52.008;4.732;2022-09-09T16:11:45;6.50;;;3.90;;
19687;SDS011;9993;52.008;4.732;2022-09-09T16:14:12;5.88;;;4.05;;
19687;SDS011;9993;52.008;4.732;2022-09-09T16:16:37;10.15;;;3.92;;
19687;SDS011;9993;52.008;4.732;2022-09-09T16:19:06;7.60;;;4.07;;
19687;SDS011;9993;52.008;4.732;2022-09-09T16:21:33;5.72;;;5.05;;
19687;SDS011;9993;52.008;4.732;2022-09-09T16:24:00;9.52;;;5.30;;
19687;SDS011;9993;52.008;4.732;2022-09-09T16:26:26;8.18;;;5.57;;
19687;SDS011;9993;52.008;4.732;2022-09-09T16:28:52;10.70;;;6.13;;
19687;SDS011;9993;52.008;4.732;2022-09-09T16:31:20;14.82;;;5.72;;
19687;SDS011;9993;52.008;4.732;2022-09-09T16:33:46;12.07;;;5.97;;
19687;SDS011;9993;52.008;4.732;2022-09-09T16:36:13;9.45;;;5.82;;
19687;SDS011;9993;52.008;4.732;2022-09-09T16:38:39;11.15;;;6.78;;
19687;SDS011;9993;52.008;4.732;2022-09-09T16:41:04;8.65;;;6.00;;
19687;SDS011;9993;52.008;4.732;2022-09-09T16:43:30;7.93;;;6.80;;
19687;SDS011;9993;52.008;4.732;2022-09-09T16:45:56;9.10;;;6.10;;
19687;SDS011;9993;52.008;4.732;2022-09-09T16:48:21;9.77;;;6.05;;
19687;SDS011;9993;52.008;4.732;2022-09-09T16:50:46;6.18;;;5.55;;
19687;SDS011;9993;52.008;4.732;2022-09-09T16:53:11;8.25;;;6.18;;
19687;SDS011;9993;52.008;4.732;2022-09-09T16:55:38;6.90;;;5.47;;
19687;SDS011;9993;52.008;4.732;2022-09-09T16:58:04;13.90;;;6.28;;
19687;SDS011;9993;52.008;4.732;2022-09-09T17:00:29;8.45;;;6.10;;
19687;SDS011;9993;52.008;4.732;2022-09-09T17:02:54;8.27;;;6.35;;